Startpagina
METAR-TAF:

METAR-TAF

Vliegvelden :

Hamad International Airport

Doha, Qatar

breedte: 25-16-23N, lengte: 51-36-29E, hoogte: 4 m

Actueel weer

Dit bericht is 1 uur en het 0 minuten geleden gemaakt, om 23:00 UTC
Wind 8 kt uit het oostnoordoosten, variërend tussen het noordoosten en het zuidzuidoosten
Temperatuur 21°C
Vochtigheid 88%
Druk 1015 hPa
Zicht: 2000 m
Weinig wolken op 400 ft
nevel

METAR: OTHH 232300Z 06008KT 040V150 2000 BR FEW004 21/19 Q1015 TEMPO 1500

Tijdstip: 03:00 (00:00 UTC)

Verwachting

Dit bericht is 56 minuten geleden gemaakt, om 23:04 UTC
Verwachting geldig van 24 om 00 UTC tot 25 om 06 UTC
Wind 9 kt uit het oosten
Zicht: 5000 m
Heiigheid
Tijdelijke
van 24 om 00 UTC tot 24 om 06 UTC
Zicht: 2500 m
nevel
Kans 40% :
Tijdelijke
van 24 om 00 UTC tot 24 om 05 UTC
Zicht: 0500 m
Weinig wolken op 700 ft
mist

TAF: OTHH 232304Z 2400/2506 09009KT 5000 HZ NSC TEMPO 2400/2406 2500 BR PROB40 TEMPO 2400/2405 0500 FG FEW007

Waarnemingen en weersverwachtingen van meer dan 4000 vliegvelden (METAR en TAF).

De beschikbare stations zijn de gele en rode punten op de kaart.

Ga met uw muis naar het station om de naam te zien.

Klik dan om waarnemingen en weersverwachtingen te zien.

kaart wijzigen: klik op de groene knoppen met een zwart kruis om in te zoomen, op de groene knop met een streepje om uit te zoomen of op de groene pijlen voor aangrenzende kaarten.


METAR-TAF: